Time;durP1;ratioP1;P1;durP2;ratioP2;P2;SDS_P1;SDS_P2;PMS_P1;PMS_P2;Temp;Humidity;BMP_temperature;BMP_pressure;BME280_temperature;BME280_humidity;BME280_pressure;Samples;Min_cycle;Max_cycle;Signal;HPM_P1;HPM_P2
2022/10/21 00:01:23;;;;;;;32.47;27.90;;;;;;;12.67;100.00;96509.38;5094858;28;20173;-54
2022/10/21 00:03:48;;;;;;;35.97;28.50;;;;;;;12.61;100.00;96518.22;5094656;28;20173;-57
2022/10/21 00:06:14;;;;;;;38.30;29.17;;;;;;;12.60;100.00;96508.75;5094863;28;20209;-57
2022/10/21 00:08:39;;;;;;;38.47;27.10;;;;;;;12.60;100.00;96509.56;5094242;28;20168;-55
2022/10/21 00:11:07;;;;;;;38.30;27.80;;;;;;;12.64;100.00;96513.31;5093821;28;20192;-57
2022/10/21 00:13:34;;;;;;;36.23;28.33;;;;;;;12.73;100.00;96519.69;5094533;28;20637;-51
2022/10/21 00:16:02;;;;;;;38.73;28.33;;;;;;;12.72;100.00;96504.97;5094392;28;20256;-56
2022/10/21 00:18:29;;;;;;;37.57;26.97;;;;;;;12.72;100.00;96506.78;5094971;28;20201;-57
2022/10/21 00:20:54;;;;;;;39.57;27.60;;;;;;;12.76;100.00;96494.75;5094516;28;20569;-57
2022/10/21 00:23:21;;;;;;;33.90;25.37;;;;;;;12.76;100.00;96494.75;5094420;28;20176;-54
2022/10/21 00:25:46;;;;;;;35.57;24.23;;;;;;;12.76;100.00;96505.28;5094312;28;20614;-57
2022/10/21 00:28:11;;;;;;;42.93;25.73;;;;;;;12.82;100.00;96506.91;5094379;28;20283;-55
2022/10/21 00:30:43;;;;;;;33.20;24.47;;;;;;;12.73;100.00;96505.75;5094124;28;20195;-52
2022/10/21 00:33:09;;;;;;;33.50;25.13;;;;;;;12.86;100.00;96516.69;5094511;28;20180;-56
2022/10/21 00:35:35;;;;;;;38.90;25.00;;;;;;;12.85;100.00;96519.56;5075911;28;20237;-55
2022/10/21 00:38:00;;;;;;;34.37;25.57;;;;;;;12.87;100.00;96523.53;5094288;28;20227;-56
2022/10/21 00:40:25;;;;;;;34.13;26.37;;;;;;;12.99;100.00;96515.50;5094217;28;20183;-58
2022/10/21 00:42:51;;;;;;;29.93;25.43;;;;;;;13.02;100.00;96519.47;5091447;28;20550;-54
2022/10/21 00:45:20;;;;;;;32.63;25.30;;;;;;;13.04;100.00;96506.88;5093511;28;20197;-57
2022/10/21 00:47:54;;;;;;;31.47;26.10;;;;;;;12.89;100.00;96499.59;5093888;28;20204;-57
2022/10/21 00:50:35;;;;;;;32.90;24.80;;;;;;;12.85;100.00;96506.41;5094308;28;20169;-57
2022/10/21 00:53:02;;;;;;;30.80;24.60;;;;;;;12.72;100.00;96498.91;5093977;28;20563;-54
2022/10/21 00:55:33;;;;;;;31.43;24.60;;;;;;;12.68;100.00;96501.25;5093777;28;20279;-51
2022/10/21 00:58:00;;;;;;;36.40;24.40;;;;;;;12.75;100.00;96501.06;5093773;28;20199;-53
2022/10/21 01:00:25;;;;;;;33.47;25.27;;;;;;;12.81;100.00;96508.75;5093874;28;20547;-51
2022/10/21 01:02:51;;;;;;;31.70;25.40;;;;;;;12.90;100.00;96515.16;5093547;28;20183;-50
2022/10/21 01:05:17;;;;;;;37.03;25.30;;;;;;;12.84;100.00;96516.13;5093739;28;20193;-50
2022/10/21 01:07:46;;;;;;;34.03;26.07;;;;;;;12.82;100.00;96515.59;5093755;28;20211;-51
2022/10/21 01:10:12;;;;;;;31.60;25.47;;;;;;;12.79;100.00;96512.66;5093397;28;20195;-51
2022/10/21 01:12:44;;;;;;;30.40;27.10;;;;;;;12.75;100.00;96516.84;5093775;28;20189;-56
2022/10/21 01:15:20;;;;;;;33.27;27.20;;;;;;;12.78;100.00;96511.88;5092603;28;20580;-56
2022/10/21 01:18:06;;;;;;;35.60;26.37;;;;;;;12.83;100.00;96506.66;5093904;28;20200;-56
2022/10/21 01:20:39;;;;;;;31.23;27.03;;;;;;;12.86;100.00;96502.75;5092827;28;20256;-55
2022/10/21 01:23:48;;;;;;;33.03;27.17;;;;;;;12.73;100.00;96498.66;5091682;28;20179;-52
2022/10/21 01:26:24;;;;;;;33.10;24.40;;;;;;;12.71;100.00;96505.19;5093153;28;20260;-55
2022/10/21 01:28:55;;;;;;;29.53;24.40;;;;;;;12.59;100.00;96505.34;5093280;28;20174;-51
2022/10/21 01:31:34;;;;;;;32.77;24.53;;;;;;;12.55;100.00;96492.91;5093243;28;20662;-51
2022/10/21 01:34:09;;;;;;;29.93;24.40;;;;;;;12.54;100.00;96500.00;5093016;28;20671;-55
2022/10/21 01:36:45;;;;;;;30.47;24.33;;;;;;;12.62;100.00;96491.69;5093001;28;20203;-53
2022/10/21 01:39:22;;;;;;;26.07;22.77;;;;;;;12.80;100.00;96483.50;5092897;28;20260;-52
2022/10/21 01:42:00;;;;;;;35.80;23.80;;;;;;;12.96;100.00;96488.91;5092816;28;20184;-52
2022/10/21 01:44:42;;;;;;;28.90;22.50;;;;;;;12.95;100.00;96487.31;5090148;28;20297;-56
2022/10/21 01:47:15;;;;;;;31.70;21.60;;;;;;;12.78;100.00;96496.09;5092711;28;20197;-52
2022/10/21 01:49:47;;;;;;;31.37;23.20;;;;;;;12.75;100.00;96495.78;5092715;28;20189;-54
2022/10/21 01:52:14;;;;;;;33.50;23.27;;;;;;;12.65;100.00;96506.97;5092114;28;20505;-57
2022/10/21 01:54:48;;;;;;;32.07;23.93;;;;;;;12.69;100.00;96518.63;5092532;28;20185;-57
2022/10/21 01:57:17;;;;;;;30.27;23.47;;;;;;;12.76;100.00;96507.91;5092812;28;20207;-56
2022/10/21 01:59:45;;;;;;;33.20;25.40;;;;;;;12.77;100.00;96504.22;5092572;28;20171;-55
2022/10/21 02:02:14;;;;;;;28.97;23.90;;;;;;;12.79;100.00;96507.41;5092045;28;20513;-52
2022/10/21 02:04:43;;;;;;;40.63;25.10;;;;;;;12.74;100.00;96510.78;5092402;28;20202;-56
2022/10/21 02:07:09;;;;;;;30.80;24.33;;;;;;;12.92;100.00;96514.91;5092741;28;20208;-57
2022/10/21 02:09:35;;;;;;;33.23;25.40;;;;;;;12.93;100.00;96502.56;5091765;28;20599;-56
2022/10/21 02:12:04;;;;;;;28.87;24.63;;;;;;;13.03;100.00;96500.03;5092510;28;20172;-57
2022/10/21 02:14:35;;;;;;;34.43;25.23;;;;;;;13.04;100.00;96488.47;5092249;28;20241;-56
2022/10/21 02:17:02;;;;;;;29.50;24.17;;;;;;;13.12;100.00;96486.19;5076756;28;20240;-57
2022/10/21 02:19:27;;;;;;;26.53;22.03;;;;;;;13.00;100.00;96471.56;5092513;28;20172;-55
2022/10/21 02:21:57;;;;;;;28.03;21.40;;;;;;;13.07;100.00;96464.28;5092245;28;20187;-56
2022/10/21 02:24:47;;;;;;;24.53;21.47;;;;;;;13.08;100.00;96465.88;5092343;28;20258;-57
2022/10/21 02:27:13;;;;;;;24.63;22.00;;;;;;;13.17;100.00;96452.03;5077596;28;20219;-56
2022/10/21 02:29:41;;;;;;;23.80;19.83;;;;;;;13.21;100.00;96431.25;5092387;28;20609;-56
2022/10/21 02:32:23;;;;;;;22.47;19.97;;;;;;;13.25;100.00;96433.16;5091942;28;20180;-54
2022/10/21 02:35:07;;;;;;;24.27;20.67;;;;;;;13.31;100.00;96423.44;5091978;28;20255;-56
2022/10/21 02:38:05;;;;;;;30.73;20.20;;;;;;;13.36;100.00;96412.16;5092097;28;20195;-54
2022/10/21 02:40:35;;;;;;;23.00;19.33;;;;;;;13.35;100.00;96400.84;5074116;28;20199;-52
2022/10/21 02:43:07;;;;;;;22.40;20.07;;;;;;;13.38;100.00;96404.78;5090284;28;20320;-56
2022/10/21 02:45:33;;;;;;;24.13;21.33;;;;;;;13.34;100.00;96401.88;5091545;28;20199;-57
2022/10/21 02:47:59;;;;;;;23.97;21.10;;;;;;;13.32;100.00;96412.66;5092120;28;20192;-58
2022/10/21 02:50:24;;;;;;;24.67;20.33;;;;;;;13.26;100.00;96411.03;5092110;28;20624;-55
2022/10/21 02:52:49;;;;;;;26.43;20.17;;;;;;;13.35;100.00;96413.19;5091621;28;20173;-55
2022/10/21 02:55:15;;;;;;;22.67;20.23;;;;;;;13.36;100.00;96393.72;5092636;28;20164;-53
2022/10/21 02:57:40;;;;;;;24.37;21.73;;;;;;;13.42;100.00;96377.72;5092351;28;20275;-55
2022/10/21 03:00:06;;;;;;;25.57;22.70;;;;;;;13.42;100.00;96383.00;5089041;28;20586;-56
2022/10/21 03:02:32;;;;;;;23.97;21.47;;;;;;;13.45;100.00;96386.94;5092407;28;20179;-56
2022/10/21 03:04:58;;;;;;;24.40;21.90;;;;;;;13.53;100.00;96383.84;5091885;28;20196;-54
2022/10/21 03:07:23;;;;;;;24.03;21.53;;;;;;;13.43;100.00;96384.56;5091809;28;20196;-57
2022/10/21 03:09:48;;;;;;;25.27;22.57;;;;;;;13.48;100.00;96389.06;5091439;28;20191;-53
2022/10/21 03:12:14;;;;;;;23.20;20.87;;;;;;;13.51;100.00;96378.03;5092027;28;20179;-53
2022/10/21 03:14:39;;;;;;;24.70;22.00;;;;;;;13.39;100.00;96362.41;5091904;28;20180;-57
2022/10/21 03:17:05;;;;;;;22.07;19.60;;;;;;;13.35;100.00;96360.56;5091711;28;20247;-53
2022/10/21 03:19:30;;;;;;;27.23;22.23;;;;;;;13.35;100.00;96363.19;5091978;28;20176;-57
2022/10/21 03:21:55;;;;;;;25.30;22.73;;;;;;;13.26;100.00;96350.50;5091813;28;20176;-56
2022/10/21 03:24:21;;;;;;;25.93;22.83;;;;;;;13.24;100.00;96359.69;5091380;28;20207;-54
2022/10/21 03:26:46;;;;;;;26.90;23.23;;;;;;;13.14;100.00;96367.53;5092099;28;20200;-57
2022/10/21 03:29:12;;;;;;;29.33;23.67;;;;;;;13.07;100.00;96372.19;5091880;28;20172;-53
2022/10/21 03:31:37;;;;;;;34.13;24.10;;;;;;;12.88;100.00;96362.03;5091770;28;20234;-53
2022/10/21 03:34:02;;;;;;;30.40;24.07;;;;;;;12.93;100.00;96354.19;5091969;28;20548;-52
2022/10/21 03:36:30;;;;;;;29.90;25.90;;;;;;;12.93;100.00;96353.38;5092051;28;20193;-54
2022/10/21 03:38:55;;;;;;;35.23;24.17;;;;;;;12.95;100.00;96361.03;5091730;28;20192;-57
2022/10/21 03:41:21;;;;;;;31.33;25.47;;;;;;;12.81;100.00;96355.41;5091845;28;20566;-51
2022/10/21 03:43:46;;;;;;;33.67;24.50;;;;;;;12.85;100.00;96353.88;5088903;28;20229;-57
2022/10/21 03:46:11;;;;;;;33.87;24.43;;;;;;;12.88;100.00;96356.78;5095308;28;20259;-57
2022/10/21 03:48:37;;;;;;;33.53;25.00;;;;;;;12.88;100.00;96350.72;5077179;28;20177;-56
2022/10/21 03:51:02;;;;;;;28.43;23.60;;;;;;;12.95;100.00;96356.56;5094805;28;20543;-55
2022/10/21 03:53:28;;;;;;;29.27;21.17;;;;;;;12.92;100.00;96349.19;5095303;28;20203;-56
2022/10/21 03:55:53;;;;;;;25.57;21.30;;;;;;;12.91;100.00;96343.13;5095047;28;20173;-54
2022/10/21 03:58:19;;;;;;;29.90;21.93;;;;;;;12.92;100.00;96343.94;5095073;28;20256;-56
2022/10/21 04:00:44;;;;;;;24.80;21.80;;;;;;;12.93;100.00;96343.66;5095294;28;20187;-55
2022/10/21 04:03:09;;;;;;;27.43;21.43;;;;;;;12.90;100.00;96341.53;5095431;28;20165;-57
2022/10/21 04:05:35;;;;;;;25.33;22.03;;;;;;;12.95;100.00;96339.97;5076688;28;20192;-55
2022/10/21 04:08:00;;;;;;;25.67;19.60;;;;;;;13.00;100.00;96340.03;5094929;28;20214;-57
2022/10/21 04:10:26;;;;;;;26.87;21.37;;;;;;;13.05;100.00;96335.59;5094400;28;20189;-55
2022/10/21 04:12:51;;;;;;;27.47;22.67;;;;;;;13.10;100.00;96334.81;5076983;28;20176;-56
2022/10/21 04:15:17;;;;;;;25.30;20.43;;;;;;;13.10;100.00;96337.44;5094804;28;20177;-55
2022/10/21 04:17:45;;;;;;;22.70;20.30;;;;;;;13.11;100.00;96325.88;5095136;28;20295;-56
2022/10/21 04:20:11;;;;;;;27.50;20.87;;;;;;;13.11;100.00;96321.44;5095040;28;20184;-53
2022/10/21 04:22:37;;;;;;;22.47;20.10;;;;;;;13.03;100.00;96318.47;5094785;28;20180;-56
2022/10/21 04:25:02;;;;;;;22.00;19.70;;;;;;;13.14;100.00;96307.00;5094280;28;20201;-57
2022/10/21 04:27:27;;;;;;;29.13;22.10;;;;;;;13.17;100.00;96309.91;5094628;28;20201;-56
2022/10/21 04:29:53;;;;;;;24.83;21.97;;;;;;;13.17;100.00;96311.75;5094572;28;20252;-54
2022/10/21 04:32:18;;;;;;;24.83;22.33;;;;;;;13.10;100.00;96298.78;5076244;28;20184;-57
2022/10/21 04:34:44;;;;;;;22.87;20.43;;;;;;;13.12;100.00;96304.63;5094181;28;20185;-57
2022/10/21 04:37:10;;;;;;;23.47;21.27;;;;;;;13.18;100.00;96302.81;5093488;28;20208;-56
2022/10/21 04:39:36;;;;;;;20.70;18.50;;;;;;;13.29;100.00;96307.09;5094348;28;20182;-55
2022/10/21 04:42:01;;;;;;;20.43;18.47;;;;;;;13.35;100.00;96305.28;5094027;28;20233;-55
2022/10/21 04:44:27;;;;;;;18.90;17.20;;;;;;;13.47;100.00;96303.25;5091278;28;20331;-57
2022/10/21 04:46:52;;;;;;;25.17;18.00;;;;;;;13.41;100.00;96296.38;5093841;28;20625;-55
2022/10/21 04:49:18;;;;;;;20.50;18.33;;;;;;;13.49;100.00;96296.66;5090379;28;20173;-53
2022/10/21 04:51:43;;;;;;;20.80;18.90;;;;;;;13.47;100.00;96290.88;5093926;28;20169;-56
2022/10/21 04:54:09;;;;;;;18.67;16.80;;;;;;;13.53;100.00;96289.06;5093937;28;20177;-56
2022/10/21 04:56:34;;;;;;;22.17;19.80;;;;;;;13.50;100.00;96285.06;5093663;28;20687;-56
2022/10/21 04:58:59;;;;;;;21.23;17.50;;;;;;;13.53;100.00;96291.69;5093600;28;20573;-55
2022/10/21 05:01:25;;;;;;;19.47;17.40;;;;;;;13.61;100.00;96291.97;5093979;28;20663;-53
2022/10/21 05:03:50;;;;;;;18.27;16.33;;;;;;;13.61;100.00;96296.44;5093699;28;20181;-54
2022/10/21 05:06:16;;;;;;;22.13;15.73;;;;;;;13.59;100.00;96298.56;5093662;28;20324;-56
2022/10/21 05:08:41;;;;;;;19.43;17.53;;;;;;;13.65;100.00;96300.94;5092954;28;20182;-57
2022/10/21 05:11:06;;;;;;;20.50;18.50;;;;;;;13.72;100.00;96301.50;5093499;28;20179;-57
2022/10/21 05:13:32;;;;;;;18.30;16.07;;;;;;;13.74;100.00;96301.25;5093465;28;20172;-57
2022/10/21 05:16:01;;;;;;;19.23;17.23;;;;;;;13.74;100.00;96295.97;5093639;28;20582;-56
2022/10/21 05:18:26;;;;;;;23.13;17.33;;;;;;;13.73;100.00;96292.53;5093319;28;20554;-57
2022/10/21 05:20:53;;;;;;;20.30;17.97;;;;;;;13.77;100.00;96294.66;5093358;28;20199;-58
2022/10/21 05:23:19;;;;;;;20.53;18.53;;;;;;;13.81;100.00;96298.38;5093353;28;20261;-58
2022/10/21 05:25:46;;;;;;;21.80;18.87;;;;;;;13.79;100.00;96295.19;5074933;28;20258;-54
2022/10/21 05:28:11;;;;;;;24.37;17.97;;;;;;;13.79;100.00;96301.25;5093361;28;20567;-57
2022/10/21 05:30:37;;;;;;;18.80;16.90;;;;;;;13.75;100.00;96292.28;5093308;28;20255;-58
2022/10/21 05:33:02;;;;;;;18.67;16.87;;;;;;;13.76;100.00;96293.09;5093095;28;20207;-57
2022/10/21 05:35:28;;;;;;;16.93;15.23;;;;;;;13.79;100.00;96296.00;5093011;28;20563;-56
2022/10/21 05:37:53;;;;;;;20.97;16.43;;;;;;;13.78;100.00;96299.66;5074758;28;20227;-57
2022/10/21 05:40:19;;;;;;;19.00;16.73;;;;;;;13.82;100.00;96292.81;5092872;28;20537;-58
2022/10/21 05:42:44;;;;;;;19.20;17.23;;;;;;;13.78;100.00;96289.13;5090326;28;20275;-54
2022/10/21 05:45:10;;;;;;;17.57;15.73;;;;;;;13.80;100.00;96273.88;5092393;28;20192;-58
2022/10/21 05:47:37;;;;;;;18.67;14.27;;;;;;;13.85;100.00;96273.88;5092639;28;20200;-54
2022/10/21 05:50:02;;;;;;;13.80;12.40;;;;;;;13.86;100.00;96267.56;5092569;28;20232;-54
2022/10/21 05:52:28;;;;;;;21.73;15.30;;;;;;;13.96;100.00;96272.06;5092871;28;20652;-51
2022/10/21 05:54:53;;;;;;;17.03;13.10;;;;;;;13.93;100.00;96276.00;5092295;28;20512;-56
2022/10/21 05:57:19;;;;;;;19.60;13.17;;;;;;;14.05;100.00;96281.03;5092514;28;20228;-57
2022/10/21 05:59:44;;;;;;;15.27;11.53;;;;;;;14.07;100.00;96279.72;5092702;28;20238;-53
2022/10/21 06:02:09;;;;;;;16.20;13.50;;;;;;;14.08;100.00;96289.22;5092868;28;20165;-54
2022/10/21 06:04:35;;;;;;;20.60;14.40;;;;;;;14.01;100.00;96291.31;5092632;28;20196;-55
2022/10/21 06:07:00;;;;;;;20.87;16.27;;;;;;;14.03;100.00;96283.94;5073966;28;20617;-53
2022/10/21 06:09:26;;;;;;;18.20;15.90;;;;;;;14.01;100.00;96285.25;5091891;28;20528;-54
2022/10/21 06:11:51;;;;;;;14.03;12.57;;;;;;;13.90;100.00;96286.28;5092599;28;20221;-55
2022/10/21 06:14:18;;;;;;;14.67;13.17;;;;;;;14.01;100.00;96282.63;5092353;28;20181;-51
2022/10/21 06:16:44;;;;;;;18.40;13.47;;;;;;;13.95;100.00;96284.44;5092654;28;20684;-56
2022/10/21 06:19:09;;;;;;;18.80;12.57;;;;;;;13.96;100.00;96283.41;5092096;28;20173;-55
2022/10/21 06:21:34;;;;;;;14.70;12.73;;;;;;;14.04;100.00;96280.25;5092681;28;20602;-57
2022/10/21 06:24:00;;;;;;;14.67;13.17;;;;;;;14.01;100.00;96291.31;5092080;28;20702;-58
2022/10/21 06:26:26;;;;;;;21.43;18.67;;;;;;;13.96;100.00;96298.41;5092222;28;20212;-64
2022/10/21 06:28:51;;;;;;;17.63;15.83;;;;;;;14.01;100.00;96293.94;5092400;28;20660;-52
2022/10/21 06:31:20;;;;;;;15.67;14.27;;;;;;;14.02;100.00;96290.25;5092062;28;20546;-53
2022/10/21 06:33:45;;;;;;;19.03;17.27;;;;;;;14.03;100.00;96297.13;5083079;28;20176;-52
2022/10/21 06:36:11;;;;;;;19.97;16.77;;;;;;;13.97;100.00;96294.72;5092034;28;20249;-53
2022/10/21 06:38:37;;;;;;;18.57;15.57;;;;;;;14.03;100.00;96305.03;5091160;28;20218;-54
2022/10/21 06:41:08;;;;;;;17.07;14.53;;;;;;;14.05;100.00;96302.91;5092621;28;20200;-56
2022/10/21 06:43:34;;;;;;;21.00;16.60;;;;;;;14.06;100.00;96301.06;5089478;28;20271;-56
2022/10/21 06:46:04;;;;;;;17.40;15.63;;;;;;;14.02;100.00;96305.28;5091755;28;20228;-55
2022/10/21 06:48:30;;;;;;;19.50;17.50;;;;;;;14.08;100.00;96309.53;5092011;28;20165;-56
2022/10/21 06:51:01;;;;;;;20.77;18.67;;;;;;;14.14;100.00;96311.13;5092041;28;20233;-56
2022/10/21 06:53:27;;;;;;;18.77;16.93;;;;;;;14.21;100.00;96316.91;5092236;28;20268;-57
2022/10/21 06:56:04;;;;;;;21.37;17.77;;;;;;;14.19;100.00;96326.94;5073371;28;20169;-54
2022/10/21 06:58:31;;;;;;;17.93;16.13;;;;;;;14.18;100.00;96335.09;5092193;28;20168;-58
2022/10/21 07:00:57;;;;;;;15.47;13.97;;;;;;;14.19;100.00;96349.88;5092593;28;20611;-55
2022/10/21 07:03:23;;;;;;;16.43;14.73;;;;;;;14.21;100.00;96359.09;5092231;28;20530;-57
2022/10/21 07:05:48;;;;;;;15.13;13.30;;;;;;;14.24;100.00;96350.66;5091704;28;20221;-54
2022/10/21 07:08:15;;;;;;;18.73;15.57;;;;;;;14.23;100.00;96350.91;5090775;28;20173;-56
2022/10/21 07:10:43;;;;;;;17.67;15.27;;;;;;;14.26;100.00;96345.16;5088947;28;20165;-56
2022/10/21 07:13:10;;;;;;;18.60;14.07;;;;;;;14.25;100.00;96349.63;5077608;28;20203;-53
2022/10/21 07:15:35;;;;;;;16.63;14.83;;;;;;;14.25;100.00;96346.19;5092079;28;20268;-56
2022/10/21 07:18:01;;;;;;;20.80;13.60;;;;;;;14.24;100.00;96334.06;5091867;28;20232;-65
2022/10/21 07:20:26;;;;;;;17.83;15.83;;;;;;;14.19;100.00;96323.50;5095120;28;20200;-62
2022/10/21 07:22:52;;;;;;;18.93;16.87;;;;;;;14.22;100.00;96329.03;5095561;28;20177;-57
2022/10/21 07:25:18;;;;;;;16.67;14.40;;;;;;;14.14;100.00;96337.47;5095350;28;20209;-57
2022/10/21 07:27:43;;;;;;;20.67;15.83;;;;;;;14.24;100.00;96302.44;5077142;28;20203;-55
2022/10/21 07:30:09;;;;;;;22.87;18.20;;;;;;;14.23;100.00;96295.56;5095678;28;20184;-55
2022/10/21 07:32:35;;;;;;;24.73;20.43;;;;;;;14.20;100.00;96290.84;5095628;28;20547;-53
2022/10/21 07:35:00;;;;;;;20.47;17.10;;;;;;;14.27;100.00;96278.97;5095539;28;20181;-65
2022/10/21 07:37:25;;;;;;;20.47;18.27;;;;;;;14.24;100.00;96281.34;5095336;28;20608;-54
2022/10/21 07:39:51;;;;;;;20.23;18.10;;;;;;;14.24;100.00;96308.50;5095192;28;20212;-64
2022/10/21 07:42:16;;;;;;;22.23;19.20;;;;;;;14.26;100.00;96332.75;5094940;28;20203;-57
2022/10/21 07:44:41;;;;;;;21.20;19.20;;;;;;;14.30;100.00;96328.53;5092621;28;20240;-61
2022/10/21 07:47:07;;;;;;;20.07;17.97;;;;;;;14.35;100.00;96320.63;5095422;28;20257;-57
2022/10/21 07:49:32;;;;;;;28.23;20.20;;;;;;;14.30;100.00;96328.53;5094594;28;20565;-53
2022/10/21 07:51:58;;;;;;;20.73;18.73;;;;;;;14.38;100.00;96337.78;5094072;28;20580;-53
2022/10/21 07:54:23;;;;;;;21.67;17.40;;;;;;;14.34;100.00;96347.25;5095393;28;20197;-58
2022/10/21 07:56:50;;;;;;;21.03;18.93;;;;;;;14.29;100.00;96355.16;5094781;28;20200;-67
2022/10/21 07:59:18;;;;;;;25.90;23.70;;;;;;;14.29;100.00;96358.59;5094848;28;20192;-58
2022/10/21 08:01:46;;;;;;;32.07;29.37;;;;;;;14.20;100.00;96343.56;5094538;28;20555;-53
2022/10/21 08:04:14;;;;;;;29.20;26.93;;;;;;;14.23;100.00;96349.09;5059157;28;20169;-55
2022/10/21 08:06:40;;;;;;;34.37;31.27;;;;;;;14.18;100.00;96340.38;5082533;28;20725;-58
2022/10/21 08:09:05;;;;;;;37.77;34.33;;;;;;;14.12;100.00;96339.56;5094015;28;20283;-55
2022/10/21 08:11:33;;;;;;;36.93;33.60;;;;;;;14.07;100.00;96342.97;5094719;28;20172;-58
2022/10/21 08:13:59;;;;;;;35.53;32.47;;;;;;;14.10;100.00;96334.53;5094125;28;20184;-62
2022/10/21 08:16:26;;;;;;;33.93;31.13;;;;;;;14.10;100.00;96349.56;5094831;28;20204;-59
2022/10/21 08:18:52;;;;;;;22.57;20.47;;;;;;;14.91;100.00;96332.03;5094530;28;20169;-58
2022/10/21 08:21:18;;;;;;;23.40;21.30;;;;;;;14.71;100.00;96331.25;5094532;28;20260;-55
2022/10/21 08:23:44;;;;;;;24.60;22.20;;;;;;;14.37;100.00;96330.97;5094224;28;20751;-56
2022/10/21 08:26:12;;;;;;;21.53;19.20;;;;;;;14.26;100.00;96337.25;5094430;28;20217;-58
2022/10/21 08:28:38;;;;;;;24.47;22.20;;;;;;;14.14;100.00;96332.19;5078203;28;20200;-54
2022/10/21 08:31:08;;;;;;;26.17;23.83;;;;;;;14.19;100.00;96316.41;5094143;28;20189;-55
2022/10/21 08:33:34;;;;;;;36.37;33.40;;;;;;;14.19;100.00;96316.41;5094253;28;20184;-54
2022/10/21 08:36:17;;;;;;;27.03;24.47;;;;;;;14.23;100.00;96306.91;5093865;28;20207;-55
2022/10/21 08:38:44;;;;;;;32.27;29.50;;;;;;;14.14;100.00;96303.22;5094061;28;20188;-56
2022/10/21 08:41:24;;;;;;;24.57;22.27;;;;;;;14.28;100.00;96296.38;5093932;28;20204;-54
2022/10/21 08:43:53;;;;;;;24.27;22.37;;;;;;;14.22;100.00;96293.97;5091227;28;20384;-56
2022/10/21 08:46:26;;;;;;;23.40;18.53;;;;;;;14.23;100.00;96282.38;5093788;28;20282;-56
2022/10/21 08:49:16;;;;;;;18.20;16.50;;;;;;;14.24;100.00;96282.13;5093659;28;20161;-57
2022/10/21 08:51:50;;;;;;;15.70;14.20;;;;;;;14.16;100.00;96275.53;5082002;28;20201;-58
2022/10/21 08:54:25;;;;;;;18.13;16.00;;;;;;;14.19;100.00;96289.25;5078155;28;20183;-57
2022/10/21 08:56:57;;;;;;;19.77;17.90;;;;;;;14.19;100.00;96290.03;5093789;28;20192;-55
2022/10/21 08:59:24;;;;;;;23.27;21.40;;;;;;;14.21;100.00;96324.06;5093557;28;20169;-56
2022/10/21 09:02:11;;;;;;;17.50;16.00;;;;;;;14.24;100.00;96332.22;5093367;28;20184;-55
2022/10/21 09:04:52;;;;;;;21.07;19.10;;;;;;;14.33;100.00;96345.66;5093653;28;20671;-57
2022/10/21 09:07:26;;;;;;;39.57;36.57;;;;;;;14.33;100.00;96357.00;5078199;28;20230;-56
2022/10/21 09:10:17;;;;;;;33.37;30.80;;;;;;;14.37;100.00;96365.25;5092962;28;20237;-55
2022/10/21 09:13:01;;;;;;;33.27;30.43;;;;;;;14.43;100.00;96330.69;5093464;28;20183;-58
2022/10/21 09:15:32;;;;;;;25.93;23.93;;;;;;;14.48;100.00;96353.66;5083196;28;20184;-55
2022/10/21 09:18:07;;;;;;;25.60;23.47;;;;;;;14.73;100.00;96358.94;5091296;28;20224;-58
2022/10/21 09:20:44;;;;;;;29.87;27.47;;;;;;;14.71;100.00;96379.50;5091126;28;20583;-55
2022/10/21 09:23:35;;;;;;;23.73;21.90;;;;;;;14.67;100.00;96393.50;5092264;28;20179;-57
2022/10/21 09:26:13;;;;;;;18.67;17.03;;;;;;;14.75;100.00;96399.06;5092746;28;20207;-57
2022/10/21 09:28:38;;;;;;;15.77;14.27;;;;;;;14.73;100.00;96401.16;5093227;28;20176;-55
2022/10/21 09:31:15;;;;;;;16.17;14.57;;;;;;;14.68;100.00;96390.59;5092200;28;20280;-56
2022/10/21 09:33:45;;;;;;;15.00;13.77;;;;;;;14.89;100.00;96400.13;5092829;28;20284;-57
2022/10/21 09:36:36;;;;;;;15.63;13.00;;;;;;;15.20;100.00;96385.09;5088844;28;20207;-57
2022/10/21 09:39:17;;;;;;;13.47;12.07;;;;;;;15.35;100.00;96387.72;5080451;28;20263;-55
2022/10/21 09:41:48;;;;;;;15.93;14.53;;;;;;;15.36;100.00;96385.88;5087549;28;20212;-59
2022/10/21 09:44:17;;;;;;;12.43;10.23;;;;;;;15.34;100.00;96390.59;5083971;28;20240;-55
2022/10/21 09:46:47;;;;;;;12.77;8.43;;;;;;;15.31;100.00;96405.16;5092916;28;20212;-56
2022/10/21 09:49:26;;;;;;;10.10;8.83;;;;;;;15.33;100.00;96410.94;5092844;28;20177;-55
2022/10/21 09:51:52;;;;;;;9.97;9.20;;;;;;;15.28;100.00;96418.88;5092944;28;20168;-58
2022/10/21 09:54:25;;;;;;;10.13;9.23;;;;;;;15.30;100.00;96411.47;5074475;28;20169;-59
2022/10/21 09:57:17;;;;;;;8.97;8.07;;;;;;;15.27;100.00;96405.91;5093297;28;20334;-54
2022/10/21 09:59:51;;;;;;;10.03;9.23;;;;;;;15.24;100.00;96411.75;5048846;28;20212;-59
2022/10/21 10:02:23;;;;;;;12.93;11.53;;;;;;;15.14;100.00;96422.31;5092285;28;20228;-58
2022/10/21 10:04:48;;;;;;;11.43;10.63;;;;;;;15.27;100.00;96408.56;5073818;28;20222;-55
2022/10/21 10:07:29;;;;;;;9.03;8.07;;;;;;;15.31;100.00;96413.06;5092337;28;20245;-56
2022/10/21 10:09:54;;;;;;;12.30;11.20;;;;;;;15.34;100.00;96417.00;5092622;28;20229;-60
2022/10/21 10:12:22;;;;;;;17.33;16.07;;;;;;;15.45;100.00;96421.22;5092208;28;20263;-58
2022/10/21 10:14:48;;;;;;;13.90;12.80;;;;;;;15.52;100.00;96421.78;5092087;28;20716;-54
2022/10/21 10:17:22;;;;;;;12.47;11.47;;;;;;;15.38;100.00;96432.06;5091983;28;20318;-55
2022/10/21 10:20:06;;;;;;;15.73;10.80;;;;;;;15.50;100.00;96433.63;5092146;28;20550;-55
2022/10/21 10:22:36;;;;;;;11.70;10.67;;;;;;;15.40;100.00;96432.59;5090935;28;20176;-58
2022/10/21 10:25:08;;;;;;;10.53;9.60;;;;;;;15.44;100.00;96440.78;5073542;28;20249;-55
2022/10/21 10:27:34;;;;;;;13.03;11.00;;;;;;;15.44;100.00;96435.50;5082887;28;20208;-57
2022/10/21 10:30:00;;;;;;;10.63;9.73;;;;;;;15.55;100.00;96436.34;5092138;28;20188;-62
2022/10/21 10:32:32;;;;;;;14.47;13.20;;;;;;;15.54;100.00;96430.25;5092335;28;20189;-56
2022/10/21 10:35:04;;;;;;;12.83;11.50;;;;;;;15.53;100.00;96431.31;5091680;28;20176;-57
2022/10/21 10:37:36;;;;;;;11.00;10.10;;;;;;;15.66;100.00;96443.94;5091711;28;20200;-57
2022/10/21 10:40:07;;;;;;;10.50;9.90;;;;;;;15.67;100.00;96445.53;5091749;28;20520;-58
2022/10/21 10:45:05;;;;;;;17.03;15.70;;;;;;;15.94;100.00;96444.44;5089249;28;20700;-67
2022/10/21 10:47:40;;;;;;;42.00;39.60;;;;;;;15.80;100.00;96450.28;5090899;28;20295;-59
2022/10/21 10:50:41;;;;;;;23.63;21.83;;;;;;;15.85;100.00;96446.81;5091784;28;20255;-58
2022/10/21 10:53:26;;;;;;;25.67;24.13;;;;;;;15.88;100.00;96445.50;5090734;28;20181;-59
2022/10/21 10:56:06;;;;;;;15.70;14.53;;;;;;;15.91;100.00;96444.97;5086840;28;20248;-59
2022/10/21 10:58:37;;;;;;;12.93;11.77;;;;;;;15.94;100.00;96445.22;5091445;28;20188;-58
2022/10/21 11:01:10;;;;;;;20.47;19.07;;;;;;;15.94;100.00;96436.50;5083089;28;20187;-57
2022/10/21 11:03:45;;;;;;;16.03;14.60;;;;;;;16.07;100.00;96447.31;5095484;28;20293;-59
2022/10/21 11:06:26;;;;;;;17.83;16.23;;;;;;;16.24;100.00;96441.69;5095758;28;20208;-58
2022/10/21 11:08:55;;;;;;;32.23;29.40;;;;;;;16.26;100.00;96436.94;5094710;28;20192;-56
2022/10/21 11:11:44;;;;;;;20.50;19.17;;;;;;;16.21;100.00;96443.03;5095688;28;20169;-55
2022/10/21 11:14:16;;;;;;;18.95;17.40;;;;;;;16.16;100.00;96440.38;5095002;28;20189;-54
2022/10/21 11:17:05;;;;;;;21.67;19.63;;;;;;;16.35;100.00;96440.59;5095588;28;20201;-56
2022/10/21 11:19:59;;;;;;;22.88;21.08;;;;;;;16.59;100.00;96443.41;5088705;28;20187;-56
2022/10/21 11:22:44;;;;;;;22.80;21.40;;;;;;;16.67;100.00;96447.31;5095627;28;20184;-57